Time;durP1;ratioP1;P1;durP2;ratioP2;P2;SDS_P1;SDS_P2;PMS_P1;PMS_P2;Temp;Humidity;BMP_temperature;BMP_pressure;BME280_temperature;BME280_humidity;BME280_pressure;Samples;Min_cycle;Max_cycle;Signal;HPM_P1;HPM_P2
2023/07/15 00:00:52;;;;;;;8.38;3.47;;;17.70;99.90;;;;;;5019617;28;20134;-76
2023/07/15 00:03:19;;;;;;;6.03;3.80;;;17.80;99.90;;;;;;5040348;28;20056;-76
2023/07/15 00:05:46;;;;;;;7.78;3.70;;;17.80;99.90;;;;;;5041009;28;20560;-77
2023/07/15 00:08:12;;;;;;;6.18;2.95;;;17.90;99.90;;;;;;5015692;28;20076;-75
2023/07/15 00:10:41;;;;;;;4.35;2.70;;;17.80;99.90;;;;;;5056227;28;20048;-76
2023/07/15 00:13:15;;;;;;;4.57;2.30;;;17.80;99.90;;;;;;5041512;28;20052;-74
2023/07/15 00:15:43;;;;;;;4.15;2.50;;;17.90;99.90;;;;;;5018264;28;20056;-76
2023/07/15 00:18:09;;;;;;;5.72;2.60;;;;;;;;;;5024346;28;20049;-76
2023/07/15 00:20:36;;;;;;;5.35;2.42;;;17.70;99.90;;;;;;5038283;28;20099;-76
2023/07/15 00:23:02;;;;;;;6.40;2.47;;;;;;;;;;5012309;28;20438;-78
2023/07/15 00:25:31;;;;;;;8.10;3.55;;;;;;;;;;5037883;28;20049;-77
2023/07/15 00:27:56;;;;;;;7.80;2.85;;;17.80;99.90;;;;;;5036865;28;20558;-76
2023/07/15 00:30:23;;;;;;;6.60;2.65;;;;;;;;;;5041134;28;20049;-76
2023/07/15 00:32:51;;;;;;;7.00;2.85;;;17.70;99.90;;;;;;5029590;28;20435;-76
2023/07/15 00:35:25;;;;;;;5.43;2.30;;;17.70;99.90;;;;;;5068958;28;20058;-74
2023/07/15 00:37:51;;;;;;;6.40;2.88;;;17.80;99.90;;;;;;5040950;28;20056;-75
2023/07/15 00:40:17;;;;;;;5.93;2.50;;;17.80;99.90;;;;;;5040346;28;20049;-78
2023/07/15 00:43:20;;;;;;;6.82;2.80;;;17.90;99.90;;;;;;5034794;28;20529;-77
2023/07/15 00:46:18;;;;;;;7.45;2.60;;;18.00;99.90;;;;;;5041387;28;20071;-78
2023/07/15 00:48:53;;;;;;;6.57;2.67;;;18.10;99.90;;;;;;5035892;28;20562;-75
2023/07/15 00:51:20;;;;;;;8.05;2.58;;;18.20;99.90;;;;;;5024042;28;20403;-77
2023/07/15 00:53:47;;;;;;;8.27;2.28;;;;;;;;;;5029244;28;20053;-76
2023/07/15 00:56:13;;;;;;;6.13;2.53;;;18.10;99.90;;;;;;5016290;28;20136;-76
2023/07/15 00:58:40;;;;;;;6.88;2.53;;;18.10;99.90;;;;;;5033957;28;20052;-73
2023/07/15 01:01:06;;;;;;;6.70;2.65;;;18.20;99.90;;;;;;5018342;28;20446;-76
2023/07/15 01:03:32;;;;;;;7.43;2.85;;;18.20;99.90;;;;;;5042328;28;20048;-78
2023/07/15 01:05:58;;;;;;;6.82;2.88;;;18.20;99.90;;;;;;5038668;28;20686;-74
2023/07/15 01:08:24;;;;;;;4.05;1.90;;;;;;;;;;5041071;28;20080;-76
2023/07/15 01:10:50;;;;;;;7.60;2.88;;;18.10;99.90;;;;;;5040395;28;20130;-75
2023/07/15 01:13:16;;;;;;;6.35;2.70;;;18.20;99.90;;;;;;5039084;28;20952;-76
2023/07/15 01:15:42;;;;;;;4.47;2.47;;;;;;;;;;5073243;28;20087;-76
2023/07/15 01:18:08;;;;;;;5.93;2.15;;;18.20;99.80;;;;;;5023241;28;20053;-74
2023/07/15 01:20:34;;;;;;;5.68;2.35;;;18.30;99.90;;;;;;5040575;28;20830;-76
2023/07/15 01:23:00;;;;;;;6.18;2.30;;;;;;;;;;5023287;28;20516;-76
2023/07/15 01:25:26;;;;;;;6.32;2.40;;;18.40;99.90;;;;;;5023774;28;20053;-76
2023/07/15 01:27:52;;;;;;;4.15;2.22;;;;;;;;;;5040497;28;20468;-77
2023/07/15 01:30:18;;;;;;;5.47;2.75;;;;;;;;;;5031357;28;20080;-74
2023/07/15 01:32:44;;;;;;;4.40;2.40;;;;;;;;;;5040236;28;20045;-76
2023/07/15 01:35:10;;;;;;;9.63;2.80;;;18.40;99.10;;;;;;5039517;28;20067;-77
2023/07/15 01:37:36;;;;;;;4.85;2.40;;;;;;;;;;5070481;28;20493;-75
2023/07/15 01:40:05;;;;;;;6.57;2.70;;;18.40;98.90;;;;;;5040287;28;20049;-76
2023/07/15 01:42:31;;;;;;;3.65;1.88;;;;;;;;;;5038021;28;20053;-78
2023/07/15 01:44:57;;;;;;;5.53;2.40;;;;;;;;;;5034493;28;20806;-76
2023/07/15 01:47:23;;;;;;;6.75;2.33;;;18.40;99.90;;;;;;5040701;28;20083;-76
2023/07/15 01:49:49;;;;;;;3.80;2.05;;;19.00;99.90;;;;;;5040081;28;20036;-76
2023/07/15 01:52:15;;;;;;;7.35;2.60;;;;;;;;;;5035669;28;20099;-77
2023/07/15 01:54:41;;;;;;;9.70;2.53;;;18.60;98.00;;;;;;5040199;28;20052;-75
2023/07/15 01:57:07;;;;;;;7.03;1.90;;;;;;;;;;5030009;28;20067;-76
2023/07/15 01:59:33;;;;;;;5.05;2.10;;;18.60;99.90;;;;;;5038728;28;20052;-75
2023/07/15 02:01:59;;;;;;;3.78;1.58;;;18.40;99.90;;;;;;5036918;28;20494;-78
2023/07/15 02:04:25;;;;;;;5.10;1.90;;;18.60;97.70;;;;;;5039178;28;20044;-74
2023/07/15 02:06:51;;;;;;;6.18;2.65;;;;;;;;;;5036047;28;20163;-74
2023/07/15 02:09:18;;;;;;;3.83;1.90;;;18.70;97.30;;;;;;5036139;28;20088;-73
2023/07/15 02:11:43;;;;;;;7.10;1.95;;;18.70;97.50;;;;;;5032291;28;20057;-78
2023/07/15 02:14:10;;;;;;;6.32;1.90;;;;;;;;;;5065895;28;20110;-74
2023/07/15 02:16:36;;;;;;;5.72;1.80;;;;;;;;;;5027020;28;20059;-74
2023/07/15 02:19:03;;;;;;;4.10;1.83;;;;;;;;;;5066748;28;20045;-77
2023/07/15 02:21:29;;;;;;;5.35;1.63;;;;;;;;;;5030693;28;20581;-76
2023/07/15 02:23:55;;;;;;;3.97;1.90;;;;;;;;;;5029705;28;20200;-76
2023/07/15 02:26:21;;;;;;;4.15;1.67;;;;;;;;;;5038946;28;20061;-76
2023/07/15 02:28:48;;;;;;;5.63;1.73;;;;;;;;;;5039872;28;20095;-76
2023/07/15 02:31:14;;;;;;;3.47;1.90;;;18.70;96.10;;;;;;5039847;28;20550;-77
2023/07/15 02:33:39;;;;;;;7.57;1.88;;;18.60;96.40;;;;;;5039524;28;20108;-77
2023/07/15 02:36:06;;;;;;;5.53;1.95;;;18.60;96.40;;;;;;5039461;28;20080;-74
2023/07/15 02:38:32;;;;;;;4.47;1.42;;;;;;;;;;5030318;28;20044;-75
2023/07/15 02:40:58;;;;;;;4.05;1.60;;;18.50;96.10;;;;;;5032636;28;20057;-72
2023/07/15 02:43:24;;;;;;;4.15;1.60;;;18.50;98.80;;;;;;5038732;28;20612;-75
2023/07/15 02:45:50;;;;;;;4.65;1.70;;;18.50;96.30;;;;;;5032159;28;20048;-75
2023/07/15 02:48:16;;;;;;;5.75;1.70;;;;;;;;;;5035806;28;20742;-78
2023/07/15 02:50:42;;;;;;;3.45;1.67;;;18.50;95.90;;;;;;5021542;28;20057;-71
2023/07/15 02:53:08;;;;;;;6.88;1.63;;;18.10;98.90;;;;;;5069528;28;20056;-75
2023/07/15 02:55:33;;;;;;;6.43;2.75;;;18.40;96.10;;;;;;5042853;28;20087;-78
2023/07/15 02:57:59;;;;;;;5.18;1.27;;;;;;;;;;5037259;28;20060;-73
2023/07/15 03:00:26;;;;;;;5.68;1.75;;;18.50;98.60;;;;;;5034240;28;20160;-73
2023/07/15 03:02:52;;;;;;;5.43;1.75;;;18.60;95.80;;;;;;5031247;28;20045;-74
2023/07/15 03:05:18;;;;;;;6.32;1.77;;;18.60;95.70;;;;;;5042903;28;20461;-74
2023/07/15 03:07:45;;;;;;;3.80;1.30;;;18.50;95.70;;;;;;5032721;28;20135;-75
2023/07/15 03:10:12;;;;;;;3.83;1.50;;;18.10;98.40;;;;;;5041495;28;20159;-74
2023/07/15 03:12:39;;;;;;;4.20;1.45;;;18.00;98.40;;;;;;5037485;28;20471;-77
2023/07/15 03:15:06;;;;;;;5.82;2.08;;;18.30;95.40;;;;;;5035772;28;20052;-71
2023/07/15 03:17:35;;;;;;;3.40;1.23;;;17.50;98.20;;;;;;5071855;28;20053;-76
2023/07/15 03:20:19;;;;;;;4.05;1.55;;;18.10;98.40;;;;;;5033814;28;20049;-77
2023/07/15 03:22:46;;;;;;;3.35;1.27;;;18.20;95.40;;;;;;5042458;28;20132;-75
2023/07/15 03:25:12;;;;;;;3.22;1.23;;;;;;;;;;5036325;28;20052;-77
2023/07/15 03:27:38;;;;;;;4.85;1.70;;;18.20;95.50;;;;;;5042385;28;20110;-74
2023/07/15 03:30:07;;;;;;;8.35;2.33;;;18.10;95.90;;;;;;5042860;28;20045;-76
2023/07/15 03:32:37;;;;;;;3.63;1.85;;;18.20;99.20;;;;;;5042836;28;20520;-76
2023/07/15 03:35:04;;;;;;;3.22;1.40;;;17.80;98.90;;;;;;5036901;28;20063;-77
2023/07/15 03:37:33;;;;;;;5.35;1.80;;;18.00;96.00;;;;;;5034978;28;20188;-75
2023/07/15 03:39:59;;;;;;;6.60;1.90;;;18.00;99.20;;;;;;5036161;28;20934;-75
2023/07/15 03:42:26;;;;;;;3.83;1.90;;;17.80;96.50;;;;;;5055090;28;20060;-72
2023/07/15 03:44:53;;;;;;;3.63;1.63;;;;;;;;;;5034828;28;20134;-75
2023/07/15 03:47:19;;;;;;;5.93;1.70;;;;;;;;;;5038670;28;20136;-74
2023/07/15 03:49:46;;;;;;;3.35;1.58;;;;;;;;;;5039762;28;20052;-76
2023/07/15 03:52:12;;;;;;;2.92;1.50;;;17.70;96.30;;;;;;5042710;28;20482;-77
2023/07/15 03:54:38;;;;;;;3.70;1.50;;;17.80;96.70;;;;;;5038093;28;20049;-75
2023/07/15 03:57:04;;;;;;;4.80;1.50;;;17.80;96.80;;;;;;5053641;28;20049;-76
2023/07/15 03:59:30;;;;;;;7.95;1.90;;;17.70;96.90;;;;;;5011448;28;20548;-74
2023/07/15 04:01:56;;;;;;;6.60;1.42;;;17.70;96.90;;;;;;5029452;28;20135;-80
2023/07/15 04:04:22;;;;;;;5.68;1.83;;;17.70;96.90;;;;;;5041216;28;20604;-78
2023/07/15 04:06:49;;;;;;;5.50;1.80;;;17.70;97.00;;;;;;5057856;28;20053;-77
2023/07/15 04:09:16;;;;;;;5.18;1.50;;;17.70;97.10;;;;;;5059293;28;20064;-78
2023/07/15 04:11:43;;;;;;;5.30;1.30;;;17.70;96.90;;;;;;5035058;28;20059;-77
2023/07/15 04:14:09;;;;;;;6.18;1.35;;;17.70;97.20;;;;;;5019736;28;20049;-73
2023/07/15 04:16:35;;;;;;;5.45;1.67;;;17.80;97.10;;;;;;5030549;28;20045;-79
2023/07/15 04:19:00;;;;;;;4.78;1.42;;;17.80;97.20;;;;;;5073111;28;20045;-77
2023/07/15 04:21:26;;;;;;;4.72;1.40;;;17.80;97.10;;;;;;5030076;28;20042;-76
2023/07/15 04:23:52;;;;;;;4.18;1.30;;;17.90;97.10;;;;;;5035537;28;20140;-77
2023/07/15 04:26:22;;;;;;;4.18;1.60;;;16.40;99.70;;;;;;5024531;28;20174;-78
2023/07/15 04:28:49;;;;;;;5.22;2.03;;;19.00;96.30;;;;;;5041114;28;20657;-77
2023/07/15 04:31:16;;;;;;;4.43;1.30;;;;;;;;;;5017239;28;20053;-79
2023/07/15 04:33:46;;;;;;;8.43;2.08;;;19.80;95.60;;;;;;5033527;28;20037;-78
2023/07/15 04:36:12;;;;;;;3.03;1.52;;;20.20;95.30;;;;;;5010589;28;20037;-77
2023/07/15 04:38:37;;;;;;;6.15;1.58;;;20.80;97.00;;;;;;5012235;28;20537;-75
2023/07/15 04:41:03;;;;;;;2.92;1.25;;;20.70;94.70;;;;;;5039157;28;20089;-78
2023/07/15 04:43:29;;;;;;;4.55;1.08;;;;;;;;;;5038698;28;20128;-77
2023/07/15 04:45:56;;;;;;;4.93;1.75;;;;;;;;;;5036714;28;20063;-78
2023/07/15 04:48:23;;;;;;;7.00;1.30;;;21.90;91.70;;;;;;5035788;28;20049;-77
2023/07/15 04:50:50;;;;;;;3.65;1.48;;;21.80;92.10;;;;;;5029310;28;20059;-77
2023/07/15 04:53:16;;;;;;;2.70;1.33;;;21.40;92.50;;;;;;5012937;28;20049;-78
2023/07/15 04:55:42;;;;;;;4.70;1.88;;;20.50;94.90;;;;;;5060937;28;20041;-75
2023/07/15 04:58:09;;;;;;;3.38;1.05;;;20.80;92.40;;;;;;5042817;28;20087;-78
2023/07/15 05:00:36;;;;;;;3.92;1.13;;;20.60;92.70;;;;;;5033275;28;20056;-79
2023/07/15 05:03:05;;;;;;;1.90;1.20;;;20.60;92.90;;;;;;5038926;28;20052;-79
2023/07/15 05:05:31;;;;;;;3.38;1.20;;;20.60;93.10;;;;;;5039628;28;20053;-75
2023/07/15 05:08:08;;;;;;;4.88;1.25;;;20.80;93.10;;;;;;5039915;28;20064;-75
2023/07/15 05:10:34;;;;;;;3.30;1.08;;;20.70;93.10;;;;;;5033974;28;20538;-76
2023/07/15 05:13:00;;;;;;;3.33;1.48;;;20.90;93.10;;;;;;5040398;28;20081;-77
2023/07/15 05:15:25;;;;;;;4.00;1.52;;;20.80;93.30;;;;;;5041152;28;20083;-77
2023/07/15 05:17:51;;;;;;;2.67;1.17;;;20.80;93.50;;;;;;5024604;28;20044;-78
2023/07/15 05:20:18;;;;;;;4.68;1.05;;;20.80;93.40;;;;;;5040483;28;20048;-76
2023/07/15 05:22:44;;;;;;;4.90;1.35;;;20.80;93.30;;;;;;5033297;28;20458;-80
2023/07/15 05:25:10;;;;;;;5.03;1.40;;;20.80;93.40;;;;;;5034371;28;20718;-78
2023/07/15 05:27:36;;;;;;;7.60;1.30;;;20.90;93.30;;;;;;5032908;28;20118;-77
2023/07/15 05:30:02;;;;;;;3.67;0.85;;;21.10;93.40;;;;;;5038345;28;20049;-77
2023/07/15 05:32:28;;;;;;;3.17;1.20;;;;;;;;;;5021862;28;20502;-76
2023/07/15 05:34:54;;;;;;;4.38;1.25;;;21.30;92.80;;;;;;5039467;28;20041;-75
2023/07/15 05:37:19;;;;;;;3.33;0.85;;;21.40;93.00;;;;;;5013624;28;20049;-76
2023/07/15 05:39:46;;;;;;;4.25;1.00;;;22.60;91.90;;;;;;5040632;28;20097;-76
2023/07/15 05:42:12;;;;;;;6.85;1.58;;;22.30;92.10;;;;;;5021930;28;20049;-77
2023/07/15 05:44:38;;;;;;;2.17;1.05;;;24.40;90.60;;;;;;5015287;28;20049;-77
2023/07/15 05:47:04;;;;;;;5.18;1.75;;;26.20;85.10;;;;;;5020639;28;20685;-78
2023/07/15 05:49:29;;;;;;;5.93;1.60;;;27.60;79.80;;;;;;5035627;28;20049;-77
2023/07/15 05:51:55;;;;;;;3.40;1.00;;;29.70;77.50;;;;;;5071178;28;20144;-79
2023/07/15 05:54:21;;;;;;;2.40;1.00;;;29.80;72.00;;;;;;5036929;28;20055;-73
2023/07/15 05:56:46;;;;;;;7.25;1.20;;;30.60;69.30;;;;;;5038712;28;20049;-78
2023/07/15 05:59:12;;;;;;;4.78;0.77;;;31.20;67.10;;;;;;5038961;28;20036;-79
2023/07/15 06:01:38;;;;;;;2.70;0.90;;;31.20;65.90;;;;;;5038293;28;20131;-77
2023/07/15 06:04:06;;;;;;;3.30;1.02;;;31.30;64.90;;;;;;5037776;28;20069;-75
2023/07/15 06:06:32;;;;;;;4.95;0.80;;;31.90;63.50;;;;;;5035699;28;20080;-75
2023/07/15 06:08:59;;;;;;;2.58;1.02;;;;;;;;;;5020991;28;20168;-78
2023/07/15 06:11:25;;;;;;;2.30;1.00;;;34.00;65.90;;;;;;5031617;28;20049;-74
2023/07/15 06:13:51;;;;;;;3.38;1.10;;;;;;;;;;5036089;28;20708;-75
2023/07/15 06:16:17;;;;;;;3.22;1.05;;;34.40;57.40;;;;;;5037174;28;20052;-79
2023/07/15 06:18:42;;;;;;;4.50;1.10;;;35.00;56.70;;;;;;5038131;28;20045;-77
2023/07/15 06:21:08;;;;;;;11.07;1.55;;;35.20;56.50;;;;;;5036497;28;20044;-73
2023/07/15 06:23:34;;;;;;;3.63;1.05;;;34.90;60.60;;;;;;5038995;28;20048;-72
2023/07/15 06:26:00;;;;;;;4.10;1.15;;;34.90;55.50;;;;;;5038833;28;20132;-76
2023/07/15 06:28:26;;;;;;;3.10;0.90;;;35.30;54.60;;;;;;5035553;28;20128;-76
2023/07/15 06:31:08;;;;;;;3.15;0.90;;;35.20;54.30;;;;;;5038620;28;20245;-75
2023/07/15 06:33:34;;;;;;;4.03;1.10;;;35.40;53.20;;;;;;5032932;28;20115;-77
2023/07/15 06:36:00;;;;;;;3.63;1.08;;;35.70;56.10;;;;;;5036499;28;20314;-73
2023/07/15 06:38:29;;;;;;;7.43;1.17;;;36.30;52.20;;;;;;5022362;28;20044;-79
2023/07/15 06:40:56;;;;;;;3.90;1.00;;;36.70;51.20;;;;;;5035175;28;20041;-76
2023/07/15 06:43:22;;;;;;;4.28;0.95;;;37.10;51.10;;;;;;5038469;28;20059;-78
2023/07/15 06:45:48;;;;;;;5.57;1.17;;;35.70;53.30;;;;;;5069862;28;20045;-78
2023/07/15 06:48:17;;;;;;;6.60;2.00;;;;;;;;;;5020192;28;20423;-78
2023/07/15 06:50:43;;;;;;;3.85;0.88;;;;;;;;;;5038072;28;20056;-78
2023/07/15 06:53:09;;;;;;;3.17;0.75;;;36.50;50.20;;;;;;5037455;28;20123;-76
2023/07/15 06:55:36;;;;;;;5.40;1.30;;;36.40;50.70;;;;;;5036078;28;20921;-80
2023/07/15 06:58:02;;;;;;;4.00;1.27;;;36.60;50.20;;;;;;5037128;28;20055;-73
2023/07/15 07:00:29;;;;;;;4.38;1.30;;;37.10;50.00;;;;;;5037626;28;20044;-76
2023/07/15 07:02:55;;;;;;;2.88;1.23;;;37.60;49.40;;;;;;5038203;28;20064;-76
2023/07/15 07:05:20;;;;;;;4.70;1.35;;;37.90;48.80;;;;;;5035335;28;20041;-76
2023/07/15 07:07:47;;;;;;;4.00;0.90;;;38.30;48.40;;;;;;5016729;28;20549;-77
2023/07/15 07:10:13;;;;;;;3.05;1.00;;;38.60;48.30;;;;;;5035218;28;20063;-77
2023/07/15 07:12:39;;;;;;;3.83;1.25;;;38.90;48.00;;;;;;5036704;28;20119;-76
2023/07/15 07:15:06;;;;;;;3.92;1.00;;;39.10;47.70;;;;;;5035536;28;20112;-71
2023/07/15 07:17:31;;;;;;;6.47;0.80;;;39.30;47.50;;;;;;5034708;28;20048;-73
2023/07/15 07:19:58;;;;;;;6.40;1.20;;;39.40;46.90;;;;;;5036072;28;20978;-78
2023/07/15 07:22:24;;;;;;;4.40;1.70;;;39.40;46.40;;;;;;5038360;28;20084;-81
2023/07/15 07:24:52;;;;;;;2.97;0.90;;;39.40;46.20;;;;;;5039356;28;20083;-77
2023/07/15 07:27:18;;;;;;;1.90;0.55;;;39.50;46.30;;;;;;5039648;28;20053;-78
2023/07/15 07:29:43;;;;;;;3.78;0.88;;;39.60;46.00;;;;;;5039053;28;20107;-79
2023/07/15 07:32:09;;;;;;;2.92;0.90;;;39.70;46.00;;;;;;5022404;28;20037;-80
2023/07/15 07:34:35;;;;;;;3.85;0.90;;;39.70;46.00;;;;;;5038668;28;20052;-76
2023/07/15 07:37:01;;;;;;;5.47;1.05;;;;;;;;;;5039180;28;20599;-79
2023/07/15 07:39:27;;;;;;;4.38;1.10;;;39.60;45.20;;;;;;5021266;28;20048;-81
2023/07/15 07:41:54;;;;;;;2.30;1.02;;;39.60;45.60;;;;;;5038694;28;20391;-77
2023/07/15 07:44:21;;;;;;;2.15;0.85;;;39.50;46.00;;;;;;5040858;28;20055;-77
2023/07/15 07:46:46;;;;;;;2.78;1.00;;;39.40;46.20;;;;;;5040591;28;20040;-79
2023/07/15 07:49:12;;;;;;;3.72;1.30;;;39.70;45.80;;;;;;5041045;28;20106;-79
2023/07/15 07:51:38;;;;;;;4.13;1.45;;;39.60;45.10;;;;;;5040333;28;20044;-78
2023/07/15 07:54:04;;;;;;;4.80;1.55;;;;;;;;;;5040848;28;20474;-81
2023/07/15 07:56:30;;;;;;;4.82;1.25;;;37.80;46.00;;;;;;5023720;28;20047;-79
2023/07/15 07:58:58;;;;;;;3.85;1.00;;;37.40;46.90;;;;;;5024849;28;20053;-76
2023/07/15 08:01:31;;;;;;;2.50;0.75;;;37.20;47.30;;;;;;5040961;28;20049;-80
2023/07/15 08:03:57;;;;;;;2.42;0.63;;;37.30;49.90;;;;;;5041135;28;20091;-80
2023/07/15 08:06:24;;;;;;;2.47;1.02;;;37.40;48.20;;;;;;5023369;28;20103;-80
2023/07/15 08:08:50;;;;;;;4.30;1.10;;;;;;;;;;5035555;28;20071;-80
2023/07/15 08:11:16;;;;;;;2.80;1.20;;;36.10;50.90;;;;;;5037905;28;20053;-82
2023/07/15 08:13:42;;;;;;;1.88;0.68;;;36.00;50.00;;;;;;5040088;28;20048;-78
2023/07/15 08:16:31;;;;;;;4.35;0.70;;;36.10;49.70;;;;;;5069640;28;20049;-81
2023/07/15 08:18:57;;;;;;;3.22;0.90;;;;;;;;;;5037070;28;20071;-83
2023/07/15 08:21:23;;;;;;;4.07;1.15;;;36.90;47.30;;;;;;5038614;28;20057;-77
2023/07/15 08:23:49;;;;;;;2.28;0.75;;;36.90;47.70;;;;;;5039944;28;20051;-81
2023/07/15 08:26:15;;;;;;;2.53;0.95;;;37.00;48.00;;;;;;5044531;28;20041;-83
2023/07/15 08:28:40;;;;;;;2.83;0.60;;;37.50;47.80;;;;;;5039288;28;20052;-81
2023/07/15 08:31:06;;;;;;;1.80;0.50;;;38.40;47.70;;;;;;5023556;28;20063;-77
2023/07/15 08:33:32;;;;;;;3.13;0.77;;;39.00;47.40;;;;;;5019500;28;20070;-81
2023/07/15 08:35:58;;;;;;;1.90;0.68;;;39.00;46.60;;;;;;5036612;28;20422;-84
2023/07/15 08:38:24;;;;;;;3.15;1.08;;;38.90;47.00;;;;;;5036835;28;20061;-80
2023/07/15 08:40:57;;;;;;;2.47;0.68;;;38.30;46.70;;;;;;5039506;28;20450;-82
2023/07/15 08:43:23;;;;;;;1.92;0.90;;;38.40;46.20;;;;;;5038484;28;20052;-83
2023/07/15 08:45:51;;;;;;;2.65;0.95;;;37.80;46.10;;;;;;5022942;28;20048;-79
2023/07/15 08:48:16;;;;;;;2.08;0.55;;;37.30;46.30;;;;;;5034766;28;20139;-81
2023/07/15 08:50:44;;;;;;;2.40;0.55;;;37.30;47.00;;;;;;5036362;28;20348;-78
2023/07/15 08:53:14;;;;;;;1.92;0.68;;;37.70;47.00;;;;;;5045984;28;20070;-80
2023/07/15 08:55:41;;;;;;;4.07;0.70;;;38.20;46.80;;;;;;5036271;28;20041;-74
2023/07/15 08:58:07;;;;;;;1.10;0.45;;;38.40;46.70;;;;;;5037730;28;20395;-80
2023/07/15 09:00:33;;;;;;;2.10;0.50;;;38.30;46.90;;;;;;5039135;28;20113;-77
2023/07/15 09:02:59;;;;;;;1.80;0.70;;;38.00;46.60;;;;;;5036065;28;20044;-81
2023/07/15 09:05:25;;;;;;;2.30;0.50;;;37.90;47.30;;;;;;5014145;28;20586;-83
2023/07/15 09:07:57;;;;;;;3.67;0.60;;;37.60;47.70;;;;;;5035106;28;20072;-81
2023/07/15 09:10:23;;;;;;;2.17;0.70;;;37.40;48.20;;;;;;5037097;28;20521;-76
2023/07/15 09:12:56;;;;;;;2.75;0.57;;;36.50;52.20;;;;;;5036655;28;20047;-80
2023/07/15 09:15:23;;;;;;;3.80;0.75;;;36.20;48.50;;;;;;5050766;28;20072;-82
2023/07/15 09:17:56;;;;;;;1.67;0.50;;;36.20;48.90;;;;;;5039205;28;20429;-82
2023/07/15 09:20:24;;;;;;;1.88;0.82;;;35.50;52.80;;;;;;5037299;28;20048;-84
2023/07/15 09:22:57;;;;;;;1.88;0.40;;;35.30;48.80;;;;;;5042265;28;20045;-82
2023/07/15 09:25:24;;;;;;;2.75;0.50;;;34.50;50.40;;;;;;5028716;28;20049;-79
2023/07/15 09:27:52;;;;;;;0.98;0.40;;;33.70;54.20;;;;;;5028597;28;20049;-76
2023/07/15 09:30:18;;;;;;;1.95;0.50;;;33.20;52.50;;;;;;5038230;28;20043;-78
2023/07/15 09:32:44;;;;;;;4.00;0.55;;;33.10;53.10;;;;;;5020365;28;20084;-75
2023/07/15 09:35:10;;;;;;;2.28;0.57;;;33.10;54.70;;;;;;5031486;28;20076;-78
2023/07/15 09:37:36;;;;;;;1.80;0.38;;;32.90;55.00;;;;;;5036695;28;20128;-75
2023/07/15 09:40:07;;;;;;;2.95;0.90;;;32.70;55.10;;;;;;5035512;28;20045;-78
2023/07/15 09:42:50;;;;;;;2.45;0.45;;;32.50;55.60;;;;;;5033476;28;20653;-79
2023/07/15 09:45:45;;;;;;;1.20;0.30;;;31.90;56.10;;;;;;5017430;28;20175;-76
2023/07/15 09:48:14;;;;;;;2.92;0.60;;;32.30;57.60;;;;;;5062509;28;20060;-78
2023/07/15 09:50:41;;;;;;;3.80;1.23;;;34.90;57.70;;;;;;5020781;28;20134;-74
2023/07/15 09:53:08;;;;;;;4.55;0.50;;;32.10;56.30;;;;;;5036217;28;20049;-79
2023/07/15 09:55:36;;;;;;;1.20;0.40;;;31.90;56.50;;;;;;5036794;28;20061;-73
2023/07/15 09:58:13;;;;;;;1.75;0.50;;;31.40;57.10;;;;;;5033128;28;20118;-81
2023/07/15 10:00:44;;;;;;;2.70;0.40;;;31.30;56.80;;;;;;5013689;28;20439;-77
2023/07/15 10:03:19;;;;;;;2.25;0.52;;;31.50;56.90;;;;;;5035542;28;20053;-79
2023/07/15 10:05:47;;;;;;;1.67;0.68;;;32.10;57.70;;;;;;5038862;28;20135;-76
2023/07/15 10:08:13;;;;;;;1.70;0.60;;;;;;;;;;5036069;28;20564;-76
2023/07/15 10:10:40;;;;;;;2.88;0.50;;;32.50;60.00;;;;;;5038308;28;20055;-76
2023/07/15 10:13:07;;;;;;;1.27;0.40;;;32.30;56.00;;;;;;5013944;28;20044;-75
2023/07/15 10:15:33;;;;;;;2.90;0.40;;;;;;;;;;5016437;28;20041;-79
2023/07/15 10:18:12;;;;;;;1.77;0.50;;;31.60;56.10;;;;;;5031308;28;20442;-77
2023/07/15 10:20:42;;;;;;;5.93;0.60;;;31.60;57.30;;;;;;5046807;28;20060;-75
2023/07/15 10:23:10;;;;;;;2.83;0.52;;;31.00;56.10;;;;;;5022016;28;20103;-75
2023/07/15 10:25:37;;;;;;;3.60;0.35;;;31.00;60.00;;;;;;5006205;28;20130;-75
2023/07/15 10:28:13;;;;;;;5.18;0.68;;;31.10;62.80;;;;;;5032586;28;20071;-77
2023/07/15 10:30:39;;;;;;;4.05;0.85;;;31.10;57.30;;;;;;5039141;28;20084;-75
2023/07/15 10:33:22;;;;;;;1.58;0.77;;;31.10;56.90;;;;;;5038813;28;20091;-75
2023/07/15 10:35:49;;;;;;;1.83;0.50;;;31.20;57.40;;;;;;5065627;28;20155;-74
2023/07/15 10:38:26;;;;;;;2.10;0.50;;;30.80;56.70;;;;;;5036637;28;20617;-75
2023/07/15 10:40:55;;;;;;;4.65;0.43;;;;;;;;;;5052204;28;20114;-79
2023/07/15 10:43:23;;;;;;;2.25;0.30;;;30.30;57.80;;;;;;5008528;28;20537;-77
2023/07/15 10:45:53;;;;;;;2.95;0.38;;;30.10;58.40;;;;;;5027460;28;20502;-76
2023/07/15 10:48:20;;;;;;;3.45;0.40;;;30.20;58.90;;;;;;5036620;28;20124;-71
2023/07/15 10:50:53;;;;;;;1.30;0.30;;;29.70;59.10;;;;;;5018624;28;20060;-79
2023/07/15 10:53:27;;;;;;;2.22;0.35;;;29.50;58.90;;;;;;5036290;28;20554;-77
2023/07/15 10:55:58;;;;;;;1.88;0.40;;;29.40;59.30;;;;;;5014318;28;20061;-79
2023/07/15 10:58:24;;;;;;;1.25;0.30;;;28.80;61.70;;;;;;5026616;28;20464;-78
2023/07/15 11:00:50;;;;;;;1.95;0.38;;;28.90;61.30;;;;;;5038291;28;20054;-78
2023/07/15 11:03:18;;;;;;;5.80;0.50;;;28.80;61.70;;;;;;5030322;28;20057;-77
2023/07/15 11:05:44;;;;;;;1.65;0.35;;;28.80;68.00;;;;;;5041170;28;20057;-81
2023/07/15 11:08:11;;;;;;;3.72;0.65;;;;;;;;;;5067276;28;20518;-77
2023/07/15 11:10:37;;;;;;;2.95;0.40;;;;;;;;;;5068819;28;20114;-77
2023/07/15 11:13:17;;;;;;;2.65;0.75;;;29.10;61.70;;;;;;5068997;28;20041;-75
2023/07/15 11:15:46;;;;;;;2.50;0.50;;;29.10;61.80;;;;;;5022456;28;20055;-78
2023/07/15 11:18:16;;;;;;;2.78;0.40;;;29.00;61.70;;;;;;5042333;28;20045;-80
2023/07/15 11:20:47;;;;;;;2.03;0.60;;;28.90;61.70;;;;;;5042249;28;20061;-78
2023/07/15 11:23:14;;;;;;;5.10;0.40;;;28.80;61.50;;;;;;5034689;28;20077;-80
2023/07/15 11:25:40;;;;;;;2.67;0.52;;;28.70;66.80;;;;;;5039099;28;20142;-82
2023/07/15 11:28:06;;;;;;;1.85;0.82;;;28.50;68.20;;;;;;5040434;28;20817;-83
2023/07/15 11:30:36;;;;;;;1.75;0.40;;;28.60;63.20;;;;;;5033659;28;20051;-79
2023/07/15 11:33:03;;;;;;;1.00;0.32;;;28.50;63.40;;;;;;5021321;28;20371;-83
2023/07/15 11:35:33;;;;;;;2.72;0.30;;;28.20;70.20;;;;;;5062710;28;20041;-78
2023/07/15 11:38:16;;;;;;;3.17;0.60;;;27.70;69.50;;;;;;5024881;28;20052;-75
2023/07/15 11:40:56;;;;;;;1.45;0.40;;;28.00;63.40;;;;;;5035069;28;20107;-79
2023/07/15 11:43:30;;;;;;;1.00;0.50;;;28.10;63.80;;;;;;5037365;28;20056;-84
2023/07/15 11:45:57;;;;;;;2.25;0.63;;;27.90;63.70;;;;;;5022753;28;20135;-78
2023/07/15 11:48:28;;;;;;;4.43;1.70;;;27.60;63.50;;;;;;5037891;28;20056;-81
2023/07/15 11:51:05;;;;;;;3.38;0.70;;;27.30;64.60;;;;;;5021895;28;20053;-76
2023/07/15 11:53:33;;;;;;;3.15;0.57;;;27.00;70.60;;;;;;5040014;28;20490;-74
2023/07/15 11:56:00;;;;;;;1.50;0.70;;;27.10;65.90;;;;;;5035217;28;20179;-74
2023/07/15 11:58:44;;;;;;;2.55;0.50;;;27.10;66.30;;;;;;5021118;28;20057;-80
2023/07/15 12:01:18;;;;;;;2.53;0.45;;;27.00;65.90;;;;;;5017630;28;20520;-75
2023/07/15 12:03:49;;;;;;;1.90;0.50;;;26.80;65.90;;;;;;5037973;28;20053;-81
2023/07/15 12:06:22;;;;;;;;;;;26.80;66.50;;;;;;5034711;28;20914;-79
2023/07/15 12:09:11;;;;;;;3.67;0.50;;;26.40;66.50;;;;;;5034986;28;19925;-80
2023/07/15 12:11:38;;;;;;;3.03;0.60;;;26.30;67.60;;;;;;5032982;28;20080;-77
2023/07/15 12:14:06;;;;;;;3.22;1.00;;;26.30;68.20;;;;;;5020442;28;20059;-78
2023/07/15 12:16:32;;;;;;;1.10;0.55;;;26.20;68.20;;;;;;5038638;28;20445;-81
2023/07/15 12:19:02;;;;;;;2.42;0.45;;;26.30;68.10;;;;;;5039398;28;20052;-79
2023/07/15 12:21:29;;;;;;;3.70;0.63;;;26.20;70.20;;;;;;5039966;28;20052;-79
2023/07/15 12:23:55;;;;;;;3.03;0.70;;;26.60;68.30;;;;;;5038708;28;20057;-80
2023/07/15 12:26:21;;;;;;;4.47;0.50;;;;;;;;;;5026746;28;20057;-74
2023/07/15 12:28:47;;;;;;;5.63;0.95;;;27.10;72.00;;;;;;5038027;28;20056;-75
2023/07/15 12:31:14;;;;;;;2.67;0.50;;;27.30;67.80;;;;;;5040759;28;20069;-75
2023/07/15 12:33:41;;;;;;;4.78;1.45;;;27.70;67.70;;;;;;5040385;28;20056;-75
2023/07/15 12:36:10;;;;;;;3.63;0.40;;;27.60;67.40;;;;;;5036220;28;20053;-74
2023/07/15 12:38:36;;;;;;;2.20;0.50;;;27.50;72.50;;;;;;5013285;28;20634;-68
2023/07/15 12:41:03;;;;;;;4.43;0.60;;;27.70;71.80;;;;;;5040223;28;20178;-77
2023/07/15 12:43:29;;;;;;;3.40;0.52;;;;;;;;;;5012574;28;20055;-83
2023/07/15 12:45:56;;;;;;;3.90;1.25;;;;;;;;;;5035168;28;20049;-79
2023/07/15 12:48:22;;;;;;;1.40;0.50;;;;;;;;;;5011672;28;20048;-77
2023/07/15 12:50:48;;;;;;;5.53;0.50;;;;;;;;;;5028291;28;20093;-75
2023/07/15 12:53:15;;;;;;;1.95;0.52;;;27.20;66.50;;;;;;5037897;28;20049;-74
2023/07/15 12:55:42;;;;;;;2.70;0.40;;;27.40;65.70;;;;;;5034288;28;20049;-79
2023/07/15 12:58:08;;;;;;;3.15;0.65;;;;;;;;;;5039580;28;20187;-79
2023/07/15 13:00:34;;;;;;;1.83;0.40;;;;;;;;;;5011334;28;20049;-76
2023/07/15 13:03:00;;;;;;;2.38;0.45;;;;;;;;;;5029734;28;20045;-77
2023/07/15 13:05:26;;;;;;;2.67;0.70;;;27.10;65.00;;;;;;5040197;28;20109;-75
2023/07/15 13:07:52;;;;;;;1.08;0.32;;;27.20;65.70;;;;;;5060511;28;20065;-76